createdAt,value
2023-02-17T00:01:12.385Z,98430.23
2023-02-17T00:05:01.646Z,98427.29
2023-02-17T00:08:50.615Z,98423.17
2023-02-17T00:12:39.566Z,98421.61
2023-02-17T00:16:28.782Z,98408.27
2023-02-17T00:20:18.173Z,98410.36
2023-02-17T00:24:07.103Z,98407.34
2023-02-17T00:27:56.219Z,98407.91
2023-02-17T00:31:47.895Z,98406.23
2023-02-17T00:35:37.188Z,98404.66
2023-02-17T00:39:26.204Z,98402.27
2023-02-17T00:43:15.276Z,98403.94
2023-02-17T00:47:04.496Z,98401.42
2023-02-17T01:03:03.036Z,98388.42
2023-02-17T01:06:50.518Z,98381.13
2023-02-17T01:14:34.885Z,98367.55
2023-02-17T01:18:24.000Z,98371.12
2023-02-17T01:22:16.445Z,98366.12
2023-02-17T01:26:05.886Z,98354.69
2023-02-17T01:29:55.380Z,98346.09
2023-02-17T01:33:44.492Z,98348.14
2023-02-17T01:37:33.648Z,98345.19
2023-02-17T01:41:28.553Z,98349.27
2023-02-17T01:45:17.565Z,98344.52
2023-02-17T01:49:09.401Z,98345.61
2023-02-17T02:01:12.254Z,98340.23
2023-02-17T02:05:01.191Z,98331.78
2023-02-17T02:20:43.610Z,98336.81
2023-02-17T02:24:48.434Z,98334.73
2023-02-17T02:28:43.769Z,98335.79
2023-02-17T02:40:48.082Z,98320.23
2023-02-17T02:44:37.177Z,98322.98
2023-02-17T02:48:35.349Z,98321.55
2023-02-17T02:52:30.323Z,98323.15
2023-02-17T02:56:29.393Z,98320.34
2023-02-17T03:00:17.661Z,98325.41
2023-02-17T03:16:30.019Z,98313.70
2023-02-17T03:20:17.719Z,98306.38
2023-02-17T03:24:05.233Z,98299.95
2023-02-17T03:27:53.152Z,98292.89
2023-02-17T03:31:40.972Z,98290.05
2023-02-17T03:35:28.878Z,98291.98
2023-02-17T03:39:09.101Z,98278.20
2023-02-17T03:42:57.821Z,98265.73
2023-02-17T03:46:45.332Z,98267.31
2023-02-17T03:50:33.407Z,98263.90
2023-02-17T03:54:20.702Z,98269.20
2023-02-17T04:06:29.464Z,98256.41
2023-02-17T04:10:16.854Z,98256.20
2023-02-17T04:14:04.435Z,98253.13
2023-02-17T04:17:52.070Z,98255.80
2023-02-17T04:21:39.892Z,98255.64
2023-02-17T04:25:27.543Z,98252.16
2023-02-17T04:33:12.074Z,98263.96
2023-02-17T04:37:01.005Z,98260.52
2023-02-17T04:40:50.104Z,98251.30
2023-02-17T04:44:39.519Z,98251.60
2023-02-17T04:48:28.937Z,98249.63
2023-02-17T04:52:17.905Z,98258.41
2023-02-17T04:56:07.448Z,98260.17
2023-02-17T04:59:57.287Z,98260.73
2023-02-17T05:03:39.033Z,98264.47
2023-02-17T05:07:28.361Z,98268.73
2023-02-17T05:11:17.361Z,98262.80
2023-02-17T05:15:07.326Z,98258.44
2023-02-17T05:30:33.933Z,98243.41
2023-02-17T05:34:22.910Z,98238.77
2023-02-17T05:38:12.205Z,98238.79
2023-02-17T05:42:01.175Z,98229.73
2023-02-17T05:45:41.631Z,98229.17
2023-02-17T05:49:13.342Z,98224.67
2023-02-17T05:52:45.658Z,98221.25
2023-02-17T05:55:57.580Z,98215.15
2023-02-17T05:58:56.670Z,98210.34
2023-02-17T06:01:47.816Z,98212.41
2023-02-17T06:05:15.619Z,98209.75
2023-02-17T06:08:49.357Z,98207.56
2023-02-17T06:12:22.221Z,98214.37
2023-02-17T06:15:49.848Z,98214.83
2023-02-17T06:18:51.924Z,98207.63
2023-02-17T06:22:02.888Z,98207.44
2023-02-17T06:25:39.505Z,98205.08
2023-02-17T06:29:27.923Z,98202.95
2023-02-17T06:32:57.444Z,98193.36
2023-02-17T06:36:27.535Z,98195.39
2023-02-17T06:40:16.573Z,98193.73
2023-02-17T06:43:54.449Z,98187.14
2023-02-17T06:47:29.360Z,98186.34
2023-02-17T06:51:00.158Z,98180.35
2023-02-17T06:54:52.265Z,98185.01
2023-02-17T06:58:32.571Z,98183.72
2023-02-17T07:02:18.727Z,98185.03
2023-02-17T07:06:02.615Z,98186.48
2023-02-17T07:09:49.624Z,98184.75
2023-02-17T07:13:20.480Z,98178.70
2023-02-17T07:17:08.268Z,98173.85
2023-02-17T07:20:47.324Z,98172.93
2023-02-17T07:24:05.074Z,98166.83
2023-02-17T07:26:41.544Z,98167.73
2023-02-17T07:29:38.032Z,98165.13
2023-02-17T07:32:49.313Z,98166.61
2023-02-17T07:35:56.251Z,98165.36
2023-02-17T07:39:02.667Z,98166.00
2023-02-17T07:42:07.018Z,98164.02
2023-02-17T07:45:25.909Z,98162.68
2023-02-17T07:48:43.561Z,98165.81
2023-02-17T07:52:16.272Z,98164.66
2023-02-17T07:55:42.739Z,98167.83
2023-02-17T07:58:57.532Z,98168.93
2023-02-17T08:02:39.159Z,98168.94
2023-02-17T08:06:20.124Z,98171.15
2023-02-17T08:09:52.392Z,98161.36
2023-02-17T08:13:20.808Z,98155.95
2023-02-17T08:16:42.938Z,98152.36
2023-02-17T08:20:15.622Z,98144.21
2023-02-17T08:23:40.058Z,98150.03
2023-02-17T08:27:23.108Z,98147.88
2023-02-17T08:31:12.465Z,98151.85
2023-02-17T08:34:56.166Z,98145.01
2023-02-17T08:38:21.880Z,98157.60
2023-02-17T08:45:27.357Z,98156.80
2023-02-17T08:48:54.909Z,98155.23
2023-02-17T08:52:35.583Z,98147.17
2023-02-17T08:56:06.454Z,98144.43
2023-02-17T08:59:35.497Z,98145.89
2023-02-17T09:02:45.882Z,98148.66
2023-02-17T09:05:20.231Z,98152.87
2023-02-17T09:08:11.209Z,98156.64
2023-02-17T09:10:40.216Z,98154.48
2023-02-17T09:13:31.841Z,98154.27
2023-02-17T09:16:26.494Z,98151.18
2023-02-17T09:19:18.282Z,98148.05
2023-02-17T09:22:37.078Z,98148.80
2023-02-17T09:25:37.178Z,98151.82
2023-02-17T09:28:58.048Z,98158.27
2023-02-17T09:32:08.276Z,98165.71
2023-02-17T09:35:01.446Z,98170.33
2023-02-17T09:38:23.510Z,98166.77
2023-02-17T09:41:58.592Z,98166.84
2023-02-17T09:45:08.598Z,98165.19
2023-02-17T09:48:20.322Z,98167.36
2023-02-17T09:51:15.354Z,98164.91
2023-02-17T09:54:01.759Z,98153.33
2023-02-17T09:57:23.053Z,98146.70
2023-02-17T10:01:04.573Z,98142.27
2023-02-17T10:04:19.022Z,98144.09
2023-02-17T10:08:11.077Z,98132.86
2023-02-17T10:12:02.664Z,98127.75
2023-02-17T10:15:45.498Z,98124.12
2023-02-17T10:19:40.670Z,98125.41
2023-02-17T10:23:23.790Z,98122.88
2023-02-17T10:31:23.212Z,98116.55
2023-02-17T10:35:18.147Z,98108.59
2023-02-17T10:39:00.770Z,98100.74
2023-02-17T10:42:49.948Z,98099.35
2023-02-17T11:11:21.794Z,98075.77
2023-02-17T11:15:04.089Z,98071.78
2023-02-17T11:18:29.358Z,98076.86
2023-02-17T11:21:54.158Z,98070.48
2023-02-17T11:50:50.789Z,98035.48
2023-02-17T11:54:33.742Z,98035.10
2023-02-17T11:58:21.183Z,98025.41
2023-02-17T12:02:25.299Z,98023.63
2023-02-17T12:06:21.364Z,98020.02
2023-02-17T12:22:12.887Z,97988.73
2023-02-17T12:26:07.203Z,97984.69
2023-02-17T12:29:41.805Z,97981.25
2023-02-17T12:32:51.151Z,97977.52
2023-02-17T12:36:08.926Z,97984.89
2023-02-17T12:39:47.649Z,97983.89
2023-02-17T12:43:18.985Z,97968.46
2023-02-17T12:45:58.563Z,97965.29
2023-02-17T12:49:32.880Z,97966.45
2023-02-17T12:53:02.441Z,97958.53
2023-02-17T12:56:38.702Z,97947.92
2023-02-17T13:12:48.847Z,97928.95
2023-02-17T13:16:16.350Z,97924.19
2023-02-17T13:20:09.789Z,97915.84
2023-02-17T13:24:03.715Z,97908.78
2023-02-17T13:30:47.564Z,97896.44
2023-02-17T13:33:43.661Z,97892.20
2023-02-17T13:37:12.692Z,97886.95
2023-02-17T13:40:44.034Z,97879.19
2023-02-17T13:51:22.581Z,97873.86
2023-02-17T13:55:07.762Z,97870.43
2023-02-17T13:58:11.301Z,97871.04
2023-02-17T14:01:45.081Z,97865.41
2023-02-17T14:05:17.091Z,97861.83
2023-02-17T14:09:00.125Z,97857.41
2023-02-17T14:12:15.360Z,97854.36
2023-02-17T14:15:55.349Z,97854.73
2023-02-17T14:19:44.370Z,97862.35
2023-02-17T14:23:05.592Z,97865.09
2023-02-17T14:26:51.055Z,97863.84
2023-02-17T14:30:40.633Z,97853.59
2023-02-17T14:34:18.845Z,97841.89
2023-02-17T14:38:08.311Z,97838.41
2023-02-17T14:41:13.795Z,97826.60
2023-02-17T14:44:46.753Z,97815.38
2023-02-17T14:48:30.074Z,97814.25
2023-02-17T14:52:12.519Z,97793.25
2023-02-17T15:25:18.876Z,97745.85
2023-02-17T15:28:48.998Z,97741.89
2023-02-17T15:32:26.831Z,97739.79
2023-02-17T15:35:50.555Z,97724.15
2023-02-17T15:39:28.032Z,97721.44
2023-02-17T15:43:15.740Z,97719.40
2023-02-17T15:46:52.027Z,97713.91
2023-02-17T15:50:29.632Z,97704.54
2023-02-17T15:53:56.970Z,97703.04
2023-02-17T15:57:07.999Z,97689.02
2023-02-17T16:00:57.244Z,97684.27
2023-02-17T16:12:26.321Z,97663.80
2023-02-17T16:16:15.373Z,97666.15
2023-02-17T16:20:04.630Z,97674.67
2023-02-17T16:36:04.657Z,97677.10
2023-02-17T16:39:45.144Z,97679.05
2023-02-17T16:43:32.650Z,97677.08
2023-02-17T16:47:20.217Z,97677.58
2023-02-17T16:51:10.864Z,97663.64
2023-02-17T16:54:54.337Z,97650.92
2023-02-17T16:58:42.151Z,97639.11
2023-02-17T17:14:05.491Z,97615.30
2023-02-17T17:17:53.672Z,97631.45
2023-02-17T17:21:20.918Z,97626.05
2023-02-17T17:25:10.069Z,97604.95
2023-02-17T17:28:59.163Z,97584.91
2023-02-17T17:32:49.010Z,97591.61
2023-02-17T17:36:38.031Z,97586.64
2023-02-17T17:40:27.349Z,97592.31
2023-02-17T17:44:16.513Z,97588.88
2023-02-17T17:47:48.390Z,97578.62
2023-02-17T17:51:09.152Z,97572.10
2023-02-17T17:54:43.539Z,97579.45
2023-02-17T17:58:13.150Z,97589.21
2023-02-17T18:02:02.167Z,97593.40
2023-02-17T18:05:50.797Z,97581.45
2023-02-17T18:09:42.483Z,97590.77
2023-02-17T18:13:32.955Z,97605.58
2023-02-17T18:17:22.041Z,97607.39
2023-02-17T18:21:00.241Z,97605.58
2023-02-17T18:43:07.473Z,97611.36
2023-02-17T18:46:38.107Z,97610.95
2023-02-17T18:50:26.208Z,97613.00
2023-02-17T18:54:15.217Z,97609.23
2023-02-17T18:58:04.534Z,97619.66
2023-02-17T19:01:56.211Z,97619.98
2023-02-17T19:05:44.431Z,97614.61
2023-02-17T19:09:32.780Z,97612.39
2023-02-17T19:13:21.911Z,97614.55
2023-02-17T19:17:10.976Z,97607.16
2023-02-17T19:21:00.322Z,97604.86
2023-02-17T19:32:44.134Z,97617.77
2023-02-17T19:36:33.653Z,97625.77
2023-02-17T19:40:23.283Z,97624.23
2023-02-17T19:44:12.882Z,97629.13
2023-02-17T19:48:02.041Z,97635.77
2023-02-17T19:51:49.788Z,97634.60
2023-02-17T19:55:38.989Z,97641.06
2023-02-17T19:59:28.219Z,97633.54
2023-02-17T20:15:06.200Z,97651.39
2023-02-17T20:18:55.405Z,97649.52
2023-02-17T20:22:44.919Z,97642.35
2023-02-17T20:26:34.317Z,97624.23
2023-02-17T20:30:23.333Z,97607.95
2023-02-17T20:34:12.297Z,97601.31
2023-02-17T20:38:02.011Z,97621.44
2023-02-17T20:41:51.140Z,97637.06
2023-02-17T20:46:12.331Z,97634.48
2023-02-17T20:50:01.078Z,97642.78
2023-02-17T20:53:51.074Z,97637.53
2023-02-17T20:57:19.916Z,97632.55
2023-02-17T21:01:08.876Z,97605.00
2023-02-17T21:04:58.209Z,97609.85
2023-02-17T21:08:47.917Z,97621.44
2023-02-17T21:12:37.108Z,97607.30
2023-02-17T21:16:26.566Z,97593.79
2023-02-17T21:20:05.590Z,97590.67
2023-02-17T21:23:53.760Z,97585.77
2023-02-17T21:27:42.743Z,97602.39
2023-02-17T21:31:32.286Z,97607.60
2023-02-17T21:39:08.789Z,97588.92
2023-02-17T21:42:55.276Z,97591.04
2023-02-17T22:02:03.649Z,97593.84
2023-02-17T22:05:51.414Z,97601.80
2023-02-17T22:09:38.939Z,97597.52
2023-02-17T22:13:26.503Z,97571.70
2023-02-17T22:17:14.315Z,97595.52
2023-02-17T22:21:02.656Z,97578.94
2023-02-17T22:37:01.469Z,97572.63
2023-02-17T22:40:49.276Z,97562.02
2023-02-17T22:44:36.757Z,97568.73
2023-02-17T22:48:24.360Z,97569.19
2023-02-17T22:52:16.246Z,97579.48
2023-02-17T22:56:04.247Z,97573.81
2023-02-17T23:00:22.655Z,97569.80
2023-02-17T23:04:12.048Z,97587.61
2023-02-17T23:08:01.129Z,97593.59
2023-02-17T23:11:48.464Z,97591.08
2023-02-17T23:15:37.460Z,97589.86
2023-02-17T23:19:26.496Z,97591.85
2023-02-17T23:22:56.291Z,97593.67
2023-02-17T23:46:12.101Z,97616.86
2023-02-17T23:50:01.409Z,97623.55
2023-02-17T23:53:50.691Z,97610.95
2023-02-17T23:57:39.574Z,97609.73
